createdAt,value
2023-05-05T00:02:23.187Z,96911.94
2023-05-05T00:04:49.623Z,96909.56
2023-05-05T00:07:15.949Z,96914.22
2023-05-05T00:09:42.988Z,96909.16
2023-05-05T00:12:09.386Z,96915.59
2023-05-05T00:14:36.010Z,96916.06
2023-05-05T00:17:02.371Z,96908.56
2023-05-05T00:19:28.712Z,96912.13
2023-05-05T00:21:55.060Z,96917.06
2023-05-05T00:24:21.414Z,96905.13
2023-05-05T00:26:48.864Z,96917.97
2023-05-05T00:29:15.644Z,96908.56
2023-05-05T00:31:42.118Z,96905.31
2023-05-05T00:34:08.526Z,96907.28
2023-05-05T00:36:34.854Z,96905.22
2023-05-05T00:39:01.205Z,96903.66
2023-05-05T00:41:27.571Z,96897.13
2023-05-05T00:43:53.948Z,96896.31
2023-05-05T00:46:25.130Z,96898.69
2023-05-05T00:48:52.464Z,96903.53
2023-05-05T00:51:20.487Z,96899.28
2023-05-05T00:53:47.878Z,96898.31
2023-05-05T00:56:16.721Z,96893.75
2023-05-05T00:58:43.971Z,96892.56
2023-05-05T01:01:11.526Z,96890.00
2023-05-05T01:03:39.134Z,96889.81
2023-05-05T01:06:18.821Z,96886.72
2023-05-05T01:09:15.407Z,96881.78
2023-05-05T01:11:59.652Z,96884.47
2023-05-05T01:14:43.215Z,96882.88
2023-05-05T01:17:18.096Z,96874.56
2023-05-05T01:20:00.002Z,96877.56
2023-05-05T01:22:38.086Z,96876.75
2023-05-05T01:25:28.722Z,96874.38
2023-05-05T01:27:55.862Z,96876.28
2023-05-05T01:30:49.934Z,96874.38
2023-05-05T01:33:23.089Z,96879.72
2023-05-05T01:35:55.094Z,96872.72
2023-05-05T01:38:25.408Z,96875.38
2023-05-05T01:41:09.331Z,96873.28
2023-05-05T01:43:37.002Z,96870.63
2023-05-05T01:46:06.344Z,96864.09
2023-05-05T01:48:33.552Z,96868.94
2023-05-05T01:51:05.092Z,96865.28
2023-05-05T01:53:33.248Z,96866.97
2023-05-05T01:56:01.831Z,96866.47
2023-05-05T01:58:29.947Z,96872.09
2023-05-05T02:00:57.829Z,96868.25
2023-05-05T02:03:26.665Z,96864.31
2023-05-05T02:05:54.709Z,96865.91
2023-05-05T02:08:23.313Z,96856.19
2023-05-05T02:10:50.541Z,96867.09
2023-05-05T02:13:18.222Z,96861.44
2023-05-05T02:15:45.243Z,96856.91
2023-05-05T02:18:12.215Z,96856.09
2023-05-05T02:20:40.792Z,96862.81
2023-05-05T02:23:08.195Z,96856.41
2023-05-05T02:25:43.704Z,96852.25
2023-05-05T02:28:15.200Z,96856.19
2023-05-05T02:30:43.276Z,96850.28
2023-05-05T02:33:13.243Z,96853.53
2023-05-05T02:35:42.074Z,96850.06
2023-05-05T02:38:13.846Z,96852.47
2023-05-05T02:40:43.209Z,96851.69
2023-05-05T02:43:11.724Z,96851.06
2023-05-05T02:45:38.301Z,96842.56
2023-05-05T02:48:05.283Z,96837.84
2023-05-05T02:50:32.104Z,96844.75
2023-05-05T02:52:59.633Z,96845.34
2023-05-05T02:55:44.238Z,96841.00
2023-05-05T02:58:36.516Z,96831.31
2023-05-05T03:01:17.867Z,96838.53
2023-05-05T03:03:59.992Z,96830.72
2023-05-05T03:06:28.349Z,96828.34
2023-05-05T03:09:06.397Z,96834.28
2023-05-05T03:11:40.550Z,96826.00
2023-05-05T03:14:19.114Z,96827.28
2023-05-05T03:16:47.220Z,96816.28
2023-05-05T03:19:16.487Z,96819.75
2023-05-05T03:21:43.411Z,96815.50
2023-05-05T03:24:14.480Z,96820.22
2023-05-05T03:26:41.246Z,96814.53
2023-05-05T03:29:07.741Z,96812.34
2023-05-05T03:31:34.288Z,96813.94
2023-05-05T03:34:00.669Z,96814.03
2023-05-05T03:36:29.917Z,96813.03
2023-05-05T03:38:56.303Z,96819.47
2023-05-05T03:41:23.532Z,96816.31
2023-05-05T03:43:50.648Z,96816.63
2023-05-05T03:46:17.396Z,96817.41
2023-05-05T03:48:43.909Z,96811.81
2023-05-05T03:51:10.413Z,96807.81
2023-05-05T03:53:36.783Z,96812.06
2023-05-05T03:56:03.238Z,96816.88
2023-05-05T03:58:29.625Z,96819.03
2023-05-05T04:00:55.988Z,96817.75
2023-05-05T04:03:22.702Z,96812.75
2023-05-05T04:05:49.475Z,96823.09
2023-05-05T04:08:15.872Z,96827.13
2023-05-05T04:10:42.254Z,96826.16
2023-05-05T04:13:08.736Z,96821.03
2023-05-05T04:15:35.306Z,96826.94
2023-05-05T04:18:01.753Z,96834.06
2023-05-05T04:20:28.119Z,96831.69
2023-05-05T04:22:54.494Z,96838.41
2023-05-05T04:25:20.890Z,96833.06
2023-05-05T04:27:47.275Z,96832.78
2023-05-05T04:30:13.798Z,96830.31
2023-05-05T04:32:40.188Z,96829.72
2023-05-05T04:35:07.783Z,96836.63
2023-05-05T04:37:34.173Z,96833.09
2023-05-05T04:40:00.592Z,96837.81
2023-05-05T04:42:26.985Z,96840.22
2023-05-05T04:44:53.375Z,96843.38
2023-05-05T04:47:19.712Z,96847.09
2023-05-05T04:49:46.065Z,96841.31
2023-05-05T04:52:13.505Z,96844.75
2023-05-05T04:54:40.016Z,96847.09
2023-05-05T04:57:07.223Z,96845.81
2023-05-05T04:59:34.676Z,96846.81
2023-05-05T05:02:01.134Z,96849.78
2023-05-05T05:04:27.544Z,96852.16
2023-05-05T05:06:54.344Z,96846.03
2023-05-05T05:09:21.701Z,96851.97
2023-05-05T05:11:48.046Z,96850.09
2023-05-05T05:14:14.408Z,96852.44
2023-05-05T05:16:40.802Z,96850.69
2023-05-05T05:19:07.139Z,96855.25
2023-05-05T05:21:33.543Z,96849.91
2023-05-05T05:23:59.951Z,96855.72
2023-05-05T05:26:27.157Z,96854.13
2023-05-05T05:28:53.508Z,96857.31
2023-05-05T05:31:19.946Z,96853.03
2023-05-05T05:33:46.494Z,96857.31
2023-05-05T05:36:12.814Z,96853.03
2023-05-05T05:38:39.205Z,96855.81
2023-05-05T05:41:07.367Z,96852.25
2023-05-05T05:43:33.719Z,96854.94
2023-05-05T05:46:00.225Z,96855.09
2023-05-05T05:48:28.528Z,96853.72
2023-05-05T05:50:56.133Z,96857.22
2023-05-05T05:53:22.889Z,96859.78
2023-05-05T05:55:49.371Z,96867.88
2023-05-05T05:58:17.041Z,96863.22
2023-05-05T06:00:43.424Z,96864.97
2023-05-05T06:03:09.963Z,96867.50
2023-05-05T06:05:36.478Z,96853.88
2023-05-05T06:08:02.906Z,96860.06
2023-05-05T06:10:29.442Z,96858.06
2023-05-05T06:12:56.116Z,96857.81
2023-05-05T06:15:22.504Z,96854.41
2023-05-05T06:17:48.969Z,96864.09
2023-05-05T06:20:15.383Z,96860.16
2023-05-05T06:22:41.726Z,96860.03
2023-05-05T06:25:08.496Z,96868.03
2023-05-05T06:27:35.096Z,96866.50
2023-05-05T06:30:01.472Z,96861.63
2023-05-05T06:32:27.867Z,96864.09
2023-05-05T06:34:54.279Z,96870.00
2023-05-05T06:37:20.723Z,96861.13
2023-05-05T06:39:47.505Z,96872.47
2023-05-05T06:42:13.813Z,96864.09
2023-05-05T06:44:40.261Z,96864.59
2023-05-05T06:47:06.888Z,96861.66
2023-05-05T06:49:33.290Z,96865.06
2023-05-05T06:51:59.685Z,96865.09
2023-05-05T06:54:26.090Z,96858.75
2023-05-05T06:56:52.419Z,96858.47
2023-05-05T06:59:18.810Z,96853.03
2023-05-05T07:01:45.261Z,96854.94
2023-05-05T07:04:12.146Z,96855.78
2023-05-05T07:06:38.570Z,96854.19
2023-05-05T07:09:05.022Z,96856.09
2023-05-05T07:11:31.373Z,96851.91
2023-05-05T07:13:57.794Z,96853.66
2023-05-05T07:16:25.323Z,96848.75
2023-05-05T07:18:51.724Z,96857.09
2023-05-05T07:21:18.125Z,96848.69
2023-05-05T07:23:46.170Z,96845.88
2023-05-05T07:26:12.778Z,96846.97
2023-05-05T07:28:39.126Z,96848.88
2023-05-05T07:31:05.658Z,96847.91
2023-05-05T07:33:32.020Z,96848.81
2023-05-05T07:35:58.378Z,96849.47
2023-05-05T07:38:25.615Z,96846.78
2023-05-05T07:40:51.953Z,96849.03
2023-05-05T07:43:18.392Z,96843.19
2023-05-05T07:45:44.845Z,96846.16
2023-05-05T07:48:11.455Z,96841.72
2023-05-05T07:50:37.850Z,96841.84
2023-05-05T07:53:13.720Z,96843.28
2023-05-05T07:55:41.415Z,96844.88
2023-05-05T07:58:08.396Z,96842.19
2023-05-05T08:00:34.810Z,96842.19
2023-05-05T08:03:01.216Z,96847.22
2023-05-05T08:05:27.689Z,96844.69
2023-05-05T08:07:54.224Z,96844.41
2023-05-05T08:10:22.232Z,96845.47
2023-05-05T08:12:48.718Z,96838.19
2023-05-05T08:15:15.070Z,96840.75
2023-05-05T08:17:49.606Z,96844.09
2023-05-05T08:20:17.477Z,96843.56
2023-05-05T08:22:43.973Z,96844.03
2023-05-05T08:25:11.238Z,96844.88
2023-05-05T08:27:39.017Z,96847.69
2023-05-05T08:30:06.496Z,96844.69
2023-05-05T08:32:32.880Z,96848.66
2023-05-05T08:35:01.531Z,96848.47
2023-05-05T08:37:27.933Z,96846.31
2023-05-05T08:39:54.318Z,96842.19
2023-05-05T08:42:33.230Z,96841.34
2023-05-05T08:45:03.349Z,96845.94
2023-05-05T08:47:31.398Z,96843.38
2023-05-05T08:49:59.164Z,96842.63
2023-05-05T08:52:32.645Z,96847.22
2023-05-05T08:55:29.059Z,96844.06
2023-05-05T08:57:57.584Z,96843.41
2023-05-05T09:00:26.367Z,96841.97
2023-05-05T09:02:55.857Z,96846.69
2023-05-05T09:05:22.461Z,96841.47
2023-05-05T09:07:50.212Z,96840.69
2023-05-05T09:10:17.516Z,96843.38
2023-05-05T09:12:44.157Z,96843.78
2023-05-05T09:15:12.381Z,96842.72
2023-05-05T09:17:39.524Z,96842.97
2023-05-05T09:20:09.909Z,96836.22
2023-05-05T09:22:45.440Z,96838.38
2023-05-05T09:25:16.612Z,96829.84
2023-05-05T09:27:48.690Z,96828.88
2023-05-05T09:30:26.826Z,96831.38
2023-05-05T09:32:55.481Z,96824.81
2023-05-05T09:35:23.120Z,96818.13
2023-05-05T09:37:49.796Z,96817.00
2023-05-05T09:40:18.358Z,96815.53
2023-05-05T09:42:45.324Z,96804.91
2023-05-05T09:45:17.938Z,96808.19
2023-05-05T09:47:48.114Z,96807.50
2023-05-05T09:50:18.093Z,96798.34
2023-05-05T09:53:02.310Z,96801.47
2023-05-05T09:55:31.291Z,96797.00
2023-05-05T09:57:59.036Z,96785.59
2023-05-05T10:00:39.238Z,96793.44
2023-05-05T10:03:05.752Z,96790.97
2023-05-05T10:05:32.180Z,96781.00
2023-05-05T10:08:12.718Z,96784.72
2023-05-05T10:10:47.794Z,96779.47
2023-05-05T10:13:15.848Z,96774.88
2023-05-05T10:15:45.087Z,96770.28
2023-05-05T10:18:14.849Z,96763.91
2023-05-05T10:20:43.250Z,96766.59
2023-05-05T10:23:14.354Z,96764.81
2023-05-05T10:25:50.683Z,96761.53
2023-05-05T10:28:28.684Z,96760.09
2023-05-05T10:30:58.269Z,96764.06
2023-05-05T10:33:33.797Z,96757.78
2023-05-05T10:36:03.347Z,96756.66
2023-05-05T10:38:31.121Z,96746.13
2023-05-05T10:40:59.999Z,96743.44
2023-05-05T10:43:27.938Z,96744.56
2023-05-05T10:45:55.635Z,96746.91
2023-05-05T10:48:32.825Z,96738.19
2023-05-05T10:51:11.095Z,96742.78
2023-05-05T10:53:50.947Z,96739.75
2023-05-05T10:56:26.619Z,96733.22
2023-05-05T10:58:59.610Z,96731.69
2023-05-05T11:01:31.972Z,96731.72
2023-05-05T11:04:17.268Z,96728.31
2023-05-05T11:07:11.047Z,96729.25
2023-05-05T11:09:58.150Z,96724.53
2023-05-05T11:12:24.595Z,96716.00
2023-05-05T11:15:28.337Z,96716.78
2023-05-05T11:18:05.812Z,96713.44
2023-05-05T11:20:40.039Z,96711.75
2023-05-05T11:23:06.526Z,96704.81
2023-05-05T11:25:36.448Z,96705.91
2023-05-05T11:28:11.903Z,96708.59
2023-05-05T11:30:56.863Z,96698.50
2023-05-05T11:33:26.843Z,96700.06
2023-05-05T11:36:05.994Z,96702.44
2023-05-05T11:38:36.093Z,96701.59
2023-05-05T11:41:13.376Z,96695.09
2023-05-05T11:43:43.108Z,96694.91
2023-05-05T11:46:14.265Z,96691.59
2023-05-05T11:48:48.048Z,96681.41
2023-05-05T11:51:16.184Z,96682.50
2023-05-05T11:53:47.368Z,96682.97
2023-05-05T11:56:18.858Z,96686.75
2023-05-05T11:58:46.645Z,96685.84
2023-05-05T12:01:15.843Z,96682.50
2023-05-05T12:03:43.434Z,96677.88
2023-05-05T12:06:10.130Z,96682.41
2023-05-05T12:08:37.469Z,96679.78
2023-05-05T12:11:10.068Z,96679.56
2023-05-05T12:13:36.601Z,96677.19
2023-05-05T12:16:09.051Z,96674.16
2023-05-05T12:18:35.582Z,96666.41
2023-05-05T12:21:03.129Z,96665.63
2023-05-05T12:23:37.954Z,96668.97
2023-05-05T12:26:04.728Z,96671.16
2023-05-05T12:28:46.457Z,96672.78
2023-05-05T12:31:13.021Z,96664.38
2023-05-05T12:33:42.933Z,96665.69
2023-05-05T12:36:09.569Z,96659.63
2023-05-05T12:38:36.415Z,96658.63
2023-05-05T12:41:02.948Z,96656.38
2023-05-05T12:43:31.488Z,96648.81
2023-05-05T12:46:06.289Z,96646.56
2023-05-05T12:48:33.736Z,96654.41
2023-05-05T12:51:12.806Z,96644.63
2023-05-05T12:53:39.340Z,96636.56
2023-05-05T12:56:05.971Z,96641.50
2023-05-05T12:58:51.065Z,96639.25
2023-05-05T13:01:17.487Z,96637.69
2023-05-05T13:03:44.640Z,96635.44
2023-05-05T13:06:21.706Z,96628.59
2023-05-05T13:08:48.182Z,96630.91
2023-05-05T13:11:14.567Z,96630.47
2023-05-05T13:13:42.050Z,96626.91
2023-05-05T13:16:08.469Z,96627.25
2023-05-05T13:18:49.020Z,96624.03
2023-05-05T13:21:16.468Z,96622.22
2023-05-05T13:23:46.765Z,96624.81
2023-05-05T13:26:13.582Z,96620.19
2023-05-05T13:28:41.074Z,96610.31
2023-05-05T13:31:08.007Z,96608.91
2023-05-05T13:33:34.885Z,96604.22
2023-05-05T13:36:03.156Z,96600.31
2023-05-05T13:38:30.271Z,96604.13
2023-05-05T13:40:56.776Z,96591.78
2023-05-05T13:43:23.323Z,96588.66
2023-05-05T13:45:49.741Z,96586.75
2023-05-05T13:48:16.107Z,96584.50
2023-05-05T13:50:42.461Z,96574.75
2023-05-05T13:53:08.773Z,96579.38
2023-05-05T13:55:35.243Z,96581.38
2023-05-05T13:58:01.615Z,96584.84
2023-05-05T14:00:28.755Z,96581.00
2023-05-05T14:02:55.726Z,96574.06
2023-05-05T14:05:22.178Z,96573.72
2023-05-05T14:07:48.518Z,96576.06
2023-05-05T14:10:14.914Z,96571.19
2023-05-05T14:12:41.332Z,96566.50
2023-05-05T14:15:08.843Z,96568.75
2023-05-05T14:17:35.565Z,96562.50
2023-05-05T14:20:01.896Z,96553.28
2023-05-05T14:22:28.283Z,96548.66
2023-05-05T14:24:54.662Z,96546.34
2023-05-05T14:27:20.992Z,96543.91
2023-05-05T14:29:47.385Z,96544.94
2023-05-05T14:32:13.856Z,96538.75
2023-05-05T14:34:40.545Z,96539.63
2023-05-05T14:37:06.992Z,96534.66
2023-05-05T14:39:33.344Z,96533.56
2023-05-05T14:41:59.648Z,96534.34
2023-05-05T14:44:26.012Z,96530.88
2023-05-05T14:46:52.403Z,96533.97
2023-05-05T14:49:18.758Z,96533.19
2023-05-05T14:51:45.119Z,96529.03
2023-05-05T14:54:24.278Z,96533.19
2023-05-05T14:56:54.823Z,96532.34
2023-05-05T14:59:21.183Z,96533.13
2023-05-05T15:01:48.180Z,96530.22
2023-05-05T15:04:14.573Z,96522.47
2023-05-05T15:06:40.924Z,96524.38
2023-05-05T15:09:07.292Z,96525.53
2023-05-05T15:11:33.753Z,96525.16
2023-05-05T15:14:00.129Z,96526.63
2023-05-05T15:16:26.684Z,96517.00
2023-05-05T15:18:53.227Z,96518.53
2023-05-05T15:21:19.646Z,96521.94
2023-05-05T15:23:46.033Z,96528.03
2023-05-05T15:26:12.488Z,96519.59
2023-05-05T15:28:38.938Z,96518.03
2023-05-05T15:31:06.267Z,96520.03
2023-05-05T15:33:33.414Z,96516.19
2023-05-05T15:36:00.234Z,96515.97
2023-05-05T15:38:28.893Z,96513.16
2023-05-05T15:40:55.283Z,96505.78
2023-05-05T15:43:21.634Z,96499.44
2023-05-05T15:45:47.964Z,96500.75
2023-05-05T15:48:14.305Z,96497.94
2023-05-05T15:50:40.834Z,96500.03
2023-05-05T15:53:07.173Z,96500.88
2023-05-05T15:55:33.970Z,96499.13
2023-05-05T15:58:00.339Z,96501.31
2023-05-05T16:00:26.758Z,96496.84
2023-05-05T16:02:53.231Z,96497.63
2023-05-05T16:05:22.154Z,96495.28
2023-05-05T16:07:49.312Z,96492.16
2023-05-05T16:10:16.784Z,96485.66
2023-05-05T16:12:43.172Z,96492.59
2023-05-05T16:15:10.374Z,96491.47
2023-05-05T16:17:37.052Z,96492.34
2023-05-05T16:20:03.956Z,96496.94
2023-05-05T16:22:30.465Z,96497.72
2023-05-05T16:24:56.857Z,96496.94
2023-05-05T16:27:23.250Z,96503.03
2023-05-05T16:29:49.941Z,96496.06
2023-05-05T16:32:16.389Z,96498.66
2023-05-05T16:34:42.743Z,96498.41
2023-05-05T16:37:09.113Z,96492.34
2023-05-05T16:39:40.011Z,96498.59
2023-05-05T16:42:06.557Z,96496.78
2023-05-05T16:44:32.899Z,96486.66
2023-05-05T16:46:59.223Z,96488.19
2023-05-05T16:49:25.908Z,96479.78
2023-05-05T16:51:54.964Z,96481.06
2023-05-05T16:54:21.326Z,96485.16
2023-05-05T16:56:47.678Z,96488.09
2023-05-05T16:59:16.315Z,96489.81
2023-05-05T17:01:43.349Z,96489.28
2023-05-05T17:04:10.874Z,96485.69
2023-05-05T17:06:37.231Z,96488.75
2023-05-05T17:09:03.721Z,96488.53
2023-05-05T17:11:30.104Z,96485.97
2023-05-05T17:13:56.450Z,96487.44
2023-05-05T17:16:22.870Z,96482.88
2023-05-05T17:18:49.234Z,96480.88
2023-05-05T17:21:15.617Z,96485.25
2023-05-05T17:23:41.963Z,96493.47
2023-05-05T17:26:08.342Z,96489.88
2023-05-05T17:28:34.721Z,96498.28
2023-05-05T17:31:01.490Z,96494.72
2023-05-05T17:33:27.859Z,96503.44
2023-05-05T17:35:54.795Z,96499.09
2023-05-05T17:38:21.323Z,96493.59
2023-05-05T17:40:47.809Z,96494.16
2023-05-05T17:43:14.187Z,96499.78
2023-05-05T17:45:42.167Z,96493.16
2023-05-05T17:48:08.578Z,96496.06
2023-05-05T17:50:34.954Z,96504.00
2023-05-05T17:53:01.318Z,96502.66
2023-05-05T17:55:27.871Z,96507.16
2023-05-05T17:57:55.760Z,96508.13
2023-05-05T18:00:22.197Z,96506.13
2023-05-05T18:02:48.631Z,96501.41
2023-05-05T18:05:15.207Z,96502.75
2023-05-05T18:07:41.568Z,96510.72
2023-05-05T18:10:10.469Z,96509.13
2023-05-05T18:12:36.938Z,96511.69
2023-05-05T18:15:04.302Z,96512.38
2023-05-05T18:17:30.650Z,96509.44
2023-05-05T18:19:57.054Z,96510.88
2023-05-05T18:22:23.396Z,96511.56
2023-05-05T18:24:49.831Z,96513.34
2023-05-05T18:27:16.233Z,96517.47
2023-05-05T18:29:42.725Z,96520.03
2023-05-05T18:32:09.133Z,96521.34
2023-05-05T18:34:35.580Z,96518.09
2023-05-05T18:37:02.001Z,96522.69
2023-05-05T18:39:28.450Z,96511.06
2023-05-05T18:41:54.794Z,96520.41
2023-05-05T18:44:21.141Z,96521.03
2023-05-05T18:46:50.332Z,96519.81
2023-05-05T18:49:16.776Z,96524.50
2023-05-05T18:51:43.515Z,96533.53
2023-05-05T18:54:10.000Z,96535.34
2023-05-05T18:56:36.491Z,96544.34
2023-05-05T18:59:02.975Z,96550.03
2023-05-05T19:01:29.405Z,96555.41
2023-05-05T19:03:55.802Z,96556.84
2023-05-05T19:06:22.272Z,96556.72
2023-05-05T19:08:48.779Z,96558.06
2023-05-05T19:11:15.433Z,96567.06
2023-05-05T19:13:42.411Z,96567.84
2023-05-05T19:16:10.237Z,96568.97
2023-05-05T19:18:36.705Z,96576.81
2023-05-05T19:21:03.488Z,96572.94
2023-05-05T19:23:29.866Z,96579.13
2023-05-05T19:25:56.317Z,96585.25
2023-05-05T19:28:22.735Z,96582.56
2023-05-05T19:30:49.139Z,96584.78
2023-05-05T19:33:15.969Z,96581.34
2023-05-05T19:35:42.669Z,96583.53
2023-05-05T19:38:12.628Z,96591.59
2023-05-05T19:40:39.385Z,96590.03
2023-05-05T19:43:05.919Z,96598.69
2023-05-05T19:45:33.522Z,96593.09
2023-05-05T19:48:01.303Z,96586.47
2023-05-05T19:50:30.133Z,96587.69
2023-05-05T19:52:56.760Z,96587.94
2023-05-05T19:55:23.188Z,96585.56
2023-05-05T19:57:49.541Z,96589.00
2023-05-05T20:00:16.339Z,96594.72
2023-05-05T20:02:45.085Z,96596.28
2023-05-05T20:05:13.971Z,96593.78
2023-05-05T20:07:41.874Z,96594.31
2023-05-05T20:10:09.532Z,96602.66
2023-05-05T20:12:36.310Z,96600.63
2023-05-05T20:15:03.116Z,96600.81
2023-05-05T20:17:29.600Z,96597.00
2023-05-05T20:19:57.529Z,96593.72
2023-05-05T20:22:26.321Z,96598.78
2023-05-05T20:24:53.334Z,96593.84
2023-05-05T20:27:20.833Z,96595.91
2023-05-05T20:29:47.321Z,96591.34
2023-05-05T20:32:13.763Z,96588.66
2023-05-05T20:34:40.319Z,96585.81
2023-05-05T20:37:06.716Z,96587.41
2023-05-05T20:39:33.078Z,96589.13
2023-05-05T20:41:59.417Z,96589.91
2023-05-05T20:44:26.177Z,96589.31
2023-05-05T20:46:52.577Z,96587.25
2023-05-05T20:49:18.916Z,96592.31
2023-05-05T20:51:45.317Z,96594.34
2023-05-05T20:54:11.744Z,96592.00
2023-05-05T20:56:38.127Z,96585.22
2023-05-05T20:59:04.676Z,96586.66
2023-05-05T21:01:31.278Z,96582.56
2023-05-05T21:03:57.722Z,96576.25
2023-05-05T21:06:24.276Z,96575.81
2023-05-05T21:08:50.627Z,96575.53
2023-05-05T21:11:17.052Z,96575.53
2023-05-05T21:13:43.382Z,96581.53
2023-05-05T21:16:10.759Z,96590.00
2023-05-05T21:18:37.272Z,96587.97
2023-05-05T21:21:03.871Z,96587.69
2023-05-05T21:23:30.977Z,96589.44
2023-05-05T21:25:57.335Z,96589.94
2023-05-05T21:28:23.716Z,96583.78
2023-05-05T21:33:21.986Z,96583.50
2023-05-05T21:35:48.328Z,96579.13
2023-05-05T21:38:14.679Z,96574.06
2023-05-05T21:40:41.149Z,96572.50
2023-05-05T21:43:07.492Z,96568.59
2023-05-05T21:45:34.014Z,96572.22
2023-05-05T21:48:00.777Z,96574.41
2023-05-05T21:50:28.838Z,96571.13
2023-05-05T21:52:55.882Z,96567.97
2023-05-05T21:55:22.301Z,96567.03
2023-05-05T21:57:48.679Z,96568.63
2023-05-05T22:00:16.667Z,96571.31
2023-05-05T22:02:44.710Z,96568.81
2023-05-05T22:05:11.777Z,96562.50
2023-05-05T22:07:38.177Z,96563.75
2023-05-05T22:10:04.967Z,96565.47
2023-05-05T22:12:31.339Z,96561.25
2023-05-05T22:14:57.697Z,96557.13
2023-05-05T22:17:24.096Z,96553.97
2023-05-05T22:19:50.540Z,96562.63
2023-05-05T22:22:17.397Z,96552.09
2023-05-05T22:24:43.822Z,96563.75
2023-05-05T22:27:10.280Z,96551.31
2023-05-05T22:29:37.021Z,96551.81
2023-05-05T22:32:03.364Z,96551.66
2023-05-05T22:34:29.812Z,96545.50
2023-05-05T22:36:57.086Z,96551.19
2023-05-05T22:39:23.708Z,96550.69
2023-05-05T22:41:50.039Z,96550.56
2023-05-05T22:44:16.472Z,96547.72
2023-05-05T22:46:42.903Z,96548.34
2023-05-05T22:49:09.379Z,96542.69
2023-05-05T22:51:35.725Z,96546.78
2023-05-05T22:54:02.120Z,96545.81
2023-05-05T22:56:28.481Z,96549.13
2023-05-05T22:58:55.955Z,96548.78
2023-05-05T23:01:22.660Z,96551.03
2023-05-05T23:03:49.084Z,96543.31
2023-05-05T23:06:15.736Z,96541.25
2023-05-05T23:08:42.127Z,96538.75
2023-05-05T23:11:08.943Z,96532.91
2023-05-05T23:13:35.453Z,96541.41
2023-05-05T23:16:11.303Z,96544.56
2023-05-05T23:18:38.530Z,96526.31
2023-05-05T23:21:05.443Z,96528.97
2023-05-05T23:23:31.866Z,96524.91
2023-05-05T23:25:58.185Z,96526.16
2023-05-05T23:28:24.546Z,96536.38
2023-05-05T23:30:50.951Z,96530.88
2023-05-05T23:33:17.357Z,96534.00
2023-05-05T23:35:45.439Z,96529.75
2023-05-05T23:38:11.803Z,96531.19
2023-05-05T23:40:38.146Z,96537.63
2023-05-05T23:43:04.514Z,96532.28
2023-05-05T23:45:30.952Z,96529.91
2023-05-05T23:47:57.418Z,96534.34
2023-05-05T23:50:25.678Z,96530.84
2023-05-05T23:52:52.006Z,96528.19
2023-05-05T23:55:18.399Z,96528.81
2023-05-05T23:57:44.796Z,96514.97
